Huvudsida
METAR-TAF:

METAR-TAF

Flygplatser :

Fujairah, Förenade Arabemiraten

latitud: 25-06N, longitud: 056-20E, höjd: 28 m

Aktuellt väderrapport

Denna rapport gjordes för 43 minuter sedan, klockan 23:00 UTC
Vind 6 kt från nordväst
Temperatur 22°C
Fuktighet 43%
Tryck 1014 hPa
Sikt: 8000 m

METAR: OMFJ 152300Z 31006KT 8000 NSC 22/09 Q1014 RMK A2996

Tid: 03:43 (23:43 UTC)

Väderprognos

Denna rapport gjordes för 43 minuter sedan, klockan 23:00 UTC
Prognos gäller från 16 kl. 00 UTC till 17 kl. 06 UTC
Vind 3 kt från väst/nordväst
Sikt: 8000 m
Blir
från 16 kl. 04 UTC till 16 kl. 06 UTC
Vind 8 kt från ost
Sannolikhet 30%
från 16 kl. 10 UTC till 16 kl. 15 UTC
Få moln på en höjd av 4000 ft, Högtornande cumulus.
Blir
från 16 kl. 15 UTC till 16 kl. 17 UTC
Vind 3 kt varierande vindriktning
Blir
från 16 kl. 22 UTC till 16 kl. 24 UTC
Vind 5 kt från väst/nordväst

TAF: OMFJ 152300Z 1600/1706 29003KT 8000 NSC BECMG 1604/1606 10008KT PROB30 1610/1615 FEW040TCU BECMG 1615/1617 VRB03KT BECMG 1622/1624 29005KT

Aktuella väderrapporter och prognoser från 4000 flygplatser (METAR- och TAF-rapporter).

De tillgängliga stationerna syns som gula och röda prickar på kartan.

För musen över prickarna för att se namnen på stationerna.

Klicka sedan för att få väderrapporter och prognoser.

För att ändra kartan: Klicka på de gröna knapparna med ett svart kors på för att zooma in; den gröna knappen med ett streck på för att zooma ut; eller på de gröna pilarna för angränsande kartor.


METAR-TAF: